sensor_id;sensor_type;location;lat;lon;timestamp;temperature;humidity
12769;DHT22;6448;48.916;8.990;2022-08-19T00:00:13;26.50;49.00
12769;DHT22;6448;48.916;8.990;2022-08-19T00:01:16;26.60;49.10
12769;DHT22;6448;48.916;8.990;2022-08-19T00:02:18;26.50;49.00
12769;DHT22;6448;48.916;8.990;2022-08-19T00:03:20;26.50;49.10
12769;DHT22;6448;48.916;8.990;2022-08-19T00:04:23;26.50;49.10
12769;DHT22;6448;48.916;8.990;2022-08-19T00:05:26;26.50;49.10
12769;DHT22;6448;48.916;8.990;2022-08-19T00:06:28;26.50;49.10
12769;DHT22;6448;48.916;8.990;2022-08-19T00:07:30;26.40;49.00
12769;DHT22;6448;48.916;8.990;2022-08-19T00:08:31;26.60;49.10
12769;DHT22;6448;48.916;8.990;2022-08-19T00:09:33;26.30;49.00
12769;DHT22;6448;48.916;8.990;2022-08-19T00:10:34;26.50;49.10
12769;DHT22;6448;48.916;8.990;2022-08-19T00:11:36;26.50;49.10
12769;DHT22;6448;48.916;8.990;2022-08-19T00:12:38;26.40;49.10
12769;DHT22;6448;48.916;8.990;2022-08-19T00:13:40;26.50;49.20
12769;DHT22;6448;48.916;8.990;2022-08-19T00:14:41;26.50;49.10
12769;DHT22;6448;48.916;8.990;2022-08-19T00:15:43;26.50;49.20
12769;DHT22;6448;48.916;8.990;2022-08-19T00:16:46;26.60;49.30
12769;DHT22;6448;48.916;8.990;2022-08-19T00:17:49;26.50;49.30
12769;DHT22;6448;48.916;8.990;2022-08-19T00:18:50;26.40;49.20
12769;DHT22;6448;48.916;8.990;2022-08-19T00:19:52;26.40;49.20
12769;DHT22;6448;48.916;8.990;2022-08-19T00:20:53;26.30;49.10
12769;DHT22;6448;48.916;8.990;2022-08-19T00:21:54;26.40;49.20
12769;DHT22;6448;48.916;8.990;2022-08-19T00:22:56;26.40;49.20
12769;DHT22;6448;48.916;8.990;2022-08-19T00:23:58;26.40;49.20
12769;DHT22;6448;48.916;8.990;2022-08-19T00:24:59;26.30;49.20
12769;DHT22;6448;48.916;8.990;2022-08-19T00:26:01;26.40;49.30
12769;DHT22;6448;48.916;8.990;2022-08-19T00:27:02;26.40;49.30
12769;DHT22;6448;48.916;8.990;2022-08-19T00:28:04;26.40;49.30
12769;DHT22;6448;48.916;8.990;2022-08-19T00:29:07;26.40;49.30
12769;DHT22;6448;48.916;8.990;2022-08-19T00:30:10;26.40;49.40
12769;DHT22;6448;48.916;8.990;2022-08-19T00:31:12;26.30;49.30
12769;DHT22;6448;48.916;8.990;2022-08-19T00:32:14;26.40;49.20
12769;DHT22;6448;48.916;8.990;2022-08-19T00:33:17;26.40;49.90
12769;DHT22;6448;48.916;8.990;2022-08-19T00:34:18;26.50;49.30
12769;DHT22;6448;48.916;8.990;2022-08-19T00:35:20;26.30;49.30
12769;DHT22;6448;48.916;8.990;2022-08-19T00:36:20;26.50;49.40
12769;DHT22;6448;48.916;8.990;2022-08-19T00:37:23;26.30;49.30
12769;DHT22;6448;48.916;8.990;2022-08-19T00:38:26;26.40;49.30
12769;DHT22;6448;48.916;8.990;2022-08-19T00:39:28;26.60;49.50
12769;DHT22;6448;48.916;8.990;2022-08-19T00:40:29;26.30;49.30
12769;DHT22;6448;48.916;8.990;2022-08-19T00:41:31;26.30;49.40
12769;DHT22;6448;48.916;8.990;2022-08-19T00:42:32;26.30;49.40
12769;DHT22;6448;48.916;8.990;2022-08-19T00:43:34;26.30;49.40
12769;DHT22;6448;48.916;8.990;2022-08-19T00:44:35;26.30;49.30
12769;DHT22;6448;48.916;8.990;2022-08-19T00:45:37;26.40;49.40
12769;DHT22;6448;48.916;8.990;2022-08-19T00:46:40;26.30;49.30
12769;DHT22;6448;48.916;8.990;2022-08-19T00:47:42;26.30;49.40
12769;DHT22;6448;48.916;8.990;2022-08-19T00:48:46;26.30;49.30
12769;DHT22;6448;48.916;8.990;2022-08-19T00:49:50;26.40;49.30
12769;DHT22;6448;48.916;8.990;2022-08-19T00:50:52;26.40;49.40
12769;DHT22;6448;48.916;8.990;2022-08-19T00:51:59;26.40;49.40
12769;DHT22;6448;48.916;8.990;2022-08-19T00:53:02;26.30;49.40
12769;DHT22;6448;48.916;8.990;2022-08-19T00:54:04;26.30;49.40
12769;DHT22;6448;48.916;8.990;2022-08-19T00:55:08;26.30;49.40
12769;DHT22;6448;48.916;8.990;2022-08-19T00:56:12;26.30;49.40
12769;DHT22;6448;48.916;8.990;2022-08-19T00:57:15;26.20;49.40
12769;DHT22;6448;48.916;8.990;2022-08-19T00:58:19;26.20;49.40
12769;DHT22;6448;48.916;8.990;2022-08-19T00:59:22;26.20;49.40
12769;DHT22;6448;48.916;8.990;2022-08-19T01:00:25;26.40;49.60
12769;DHT22;6448;48.916;8.990;2022-08-19T01:01:27;26.20;49.60
12769;DHT22;6448;48.916;8.990;2022-08-19T01:02:28;26.20;49.60
12769;DHT22;6448;48.916;8.990;2022-08-19T01:03:30;26.20;49.60
12769;DHT22;6448;48.916;8.990;2022-08-19T01:04:32;26.20;49.60
12769;DHT22;6448;48.916;8.990;2022-08-19T01:05:35;26.20;49.70
12769;DHT22;6448;48.916;8.990;2022-08-19T01:06:38;26.20;49.80
12769;DHT22;6448;48.916;8.990;2022-08-19T01:07:41;26.10;49.70
12769;DHT22;6448;48.916;8.990;2022-08-19T01:08:42;26.10;49.70
12769;DHT22;6448;48.916;8.990;2022-08-19T01:09:45;26.10;49.70
12769;DHT22;6448;48.916;8.990;2022-08-19T01:10:48;26.10;49.80
12769;DHT22;6448;48.916;8.990;2022-08-19T01:11:51;26.10;49.80
12769;DHT22;6448;48.916;8.990;2022-08-19T01:12:54;26.20;50.00
12769;DHT22;6448;48.916;8.990;2022-08-19T01:13:56;26.10;50.00
12769;DHT22;6448;48.916;8.990;2022-08-19T01:14:59;26.00;49.90
12769;DHT22;6448;48.916;8.990;2022-08-19T01:16:03;26.10;50.00
12769;DHT22;6448;48.916;8.990;2022-08-19T01:17:05;26.00;50.00
12769;DHT22;6448;48.916;8.990;2022-08-19T01:18:10;26.00;50.00
12769;DHT22;6448;48.916;8.990;2022-08-19T01:19:17;26.10;50.10
12769;DHT22;6448;48.916;8.990;2022-08-19T01:20:22;26.00;50.10
12769;DHT22;6448;48.916;8.990;2022-08-19T01:21:27;26.00;50.10
12769;DHT22;6448;48.916;8.990;2022-08-19T01:22:36;26.00;50.20
12769;DHT22;6448;48.916;8.990;2022-08-19T01:23:37;26.10;50.30
12769;DHT22;6448;48.916;8.990;2022-08-19T01:24:45;25.80;50.10
12769;DHT22;6448;48.916;8.990;2022-08-19T01:25:48;26.10;50.30
12769;DHT22;6448;48.916;8.990;2022-08-19T01:26:50;26.10;50.30
12769;DHT22;6448;48.916;8.990;2022-08-19T01:27:51;26.00;50.20
12769;DHT22;6448;48.916;8.990;2022-08-19T01:28:57;26.00;50.30
12769;DHT22;6448;48.916;8.990;2022-08-19T01:29:58;25.90;50.20
12769;DHT22;6448;48.916;8.990;2022-08-19T01:30:59;25.90;50.30
12769;DHT22;6448;48.916;8.990;2022-08-19T01:32:01;25.90;50.30
12769;DHT22;6448;48.916;8.990;2022-08-19T01:33:03;26.00;50.40
12769;DHT22;6448;48.916;8.990;2022-08-19T01:34:06;26.00;50.50
12769;DHT22;6448;48.916;8.990;2022-08-19T01:35:09;26.00;50.50
12769;DHT22;6448;48.916;8.990;2022-08-19T01:36:12;25.90;50.40
12769;DHT22;6448;48.916;8.990;2022-08-19T01:37:15;26.00;50.50
12769;DHT22;6448;48.916;8.990;2022-08-19T01:38:24;25.90;50.40
12769;DHT22;6448;48.916;8.990;2022-08-19T01:39:26;26.00;50.50
12769;DHT22;6448;48.916;8.990;2022-08-19T01:40:30;26.00;50.40
12769;DHT22;6448;48.916;8.990;2022-08-19T01:41:34;26.00;50.50
12769;DHT22;6448;48.916;8.990;2022-08-19T01:42:35;26.00;50.40
12769;DHT22;6448;48.916;8.990;2022-08-19T01:43:37;26.00;50.50
12769;DHT22;6448;48.916;8.990;2022-08-19T01:44:38;26.10;50.50
12769;DHT22;6448;48.916;8.990;2022-08-19T01:45:41;25.90;50.50
12769;DHT22;6448;48.916;8.990;2022-08-19T01:46:43;26.00;50.50
12769;DHT22;6448;48.916;8.990;2022-08-19T01:47:45;25.90;50.50
12769;DHT22;6448;48.916;8.990;2022-08-19T01:48:46;26.00;50.60
12769;DHT22;6448;48.916;8.990;2022-08-19T01:49:48;26.00;50.50
12769;DHT22;6448;48.916;8.990;2022-08-19T01:50:49;26.00;50.60
12769;DHT22;6448;48.916;8.990;2022-08-19T01:51:52;26.00;50.50
12769;DHT22;6448;48.916;8.990;2022-08-19T01:52:54;26.00;50.60
12769;DHT22;6448;48.916;8.990;2022-08-19T01:53:57;25.60;50.30
12769;DHT22;6448;48.916;8.990;2022-08-19T01:54:58;26.00;50.50
12769;DHT22;6448;48.916;8.990;2022-08-19T01:56:00;25.90;50.50
12769;DHT22;6448;48.916;8.990;2022-08-19T01:57:05;25.90;50.50
12769;DHT22;6448;48.916;8.990;2022-08-19T01:58:09;25.90;50.50
12769;DHT22;6448;48.916;8.990;2022-08-19T01:59:14;25.90;50.50
12769;DHT22;6448;48.916;8.990;2022-08-19T02:00:19;25.90;50.60
12769;DHT22;6448;48.916;8.990;2022-08-19T02:01:20;26.00;50.70
12769;DHT22;6448;48.916;8.990;2022-08-19T02:02:21;25.90;50.60
12769;DHT22;6448;48.916;8.990;2022-08-19T02:03:23;25.70;50.50
12769;DHT22;6448;48.916;8.990;2022-08-19T02:04:24;26.00;50.70
12769;DHT22;6448;48.916;8.990;2022-08-19T02:05:27;25.90;50.60
12769;DHT22;6448;48.916;8.990;2022-08-19T02:06:29;25.80;50.60
12769;DHT22;6448;48.916;8.990;2022-08-19T02:07:30;25.80;50.60
12769;DHT22;6448;48.916;8.990;2022-08-19T02:08:35;25.90;50.70
12769;DHT22;6448;48.916;8.990;2022-08-19T02:09:38;25.80;50.70
12769;DHT22;6448;48.916;8.990;2022-08-19T02:10:41;25.80;50.80
12769;DHT22;6448;48.916;8.990;2022-08-19T02:11:43;25.70;50.80
12769;DHT22;6448;48.916;8.990;2022-08-19T02:12:45;25.50;50.60
12769;DHT22;6448;48.916;8.990;2022-08-19T02:13:45;25.50;50.70
12769;DHT22;6448;48.916;8.990;2022-08-19T02:14:48;25.80;51.50
12769;DHT22;6448;48.916;8.990;2022-08-19T02:15:48;25.80;50.80
12769;DHT22;6448;48.916;8.990;2022-08-19T02:16:50;25.70;50.90
12769;DHT22;6448;48.916;8.990;2022-08-19T02:17:51;25.80;50.90
12769;DHT22;6448;48.916;8.990;2022-08-19T02:18:53;25.70;50.90
12769;DHT22;6448;48.916;8.990;2022-08-19T02:19:55;25.70;50.90
12769;DHT22;6448;48.916;8.990;2022-08-19T02:20:57;25.70;50.90
12769;DHT22;6448;48.916;8.990;2022-08-19T02:21:58;25.70;50.80
12769;DHT22;6448;48.916;8.990;2022-08-19T02:22:59;25.70;50.90
12769;DHT22;6448;48.916;8.990;2022-08-19T02:24:02;25.80;51.00
12769;DHT22;6448;48.916;8.990;2022-08-19T02:25:06;25.70;51.00
12769;DHT22;6448;48.916;8.990;2022-08-19T02:26:07;25.70;51.00
12769;DHT22;6448;48.916;8.990;2022-08-19T02:27:09;25.70;51.00
12769;DHT22;6448;48.916;8.990;2022-08-19T02:28:10;25.70;50.90
12769;DHT22;6448;48.916;8.990;2022-08-19T02:29:12;25.70;50.90
12769;DHT22;6448;48.916;8.990;2022-08-19T02:30:16;25.70;51.00
12769;DHT22;6448;48.916;8.990;2022-08-19T02:31:19;25.70;50.90
12769;DHT22;6448;48.916;8.990;2022-08-19T02:32:21;25.90;51.10
12769;DHT22;6448;48.916;8.990;2022-08-19T02:33:22;25.70;51.00
12769;DHT22;6448;48.916;8.990;2022-08-19T02:34:23;25.90;51.00
12769;DHT22;6448;48.916;8.990;2022-08-19T02:35:26;25.70;51.00
12769;DHT22;6448;48.916;8.990;2022-08-19T02:36:27;25.70;51.00
12769;DHT22;6448;48.916;8.990;2022-08-19T02:37:29;25.60;50.90
12769;DHT22;6448;48.916;8.990;2022-08-19T02:38:48;25.80;51.10
12769;DHT22;6448;48.916;8.990;2022-08-19T02:39:49;25.70;51.00
12769;DHT22;6448;48.916;8.990;2022-08-19T02:40:52;25.70;51.10
12769;DHT22;6448;48.916;8.990;2022-08-19T02:41:54;25.60;51.10
12769;DHT22;6448;48.916;8.990;2022-08-19T02:42:56;25.70;51.10
12769;DHT22;6448;48.916;8.990;2022-08-19T02:43:59;25.60;51.10
12769;DHT22;6448;48.916;8.990;2022-08-19T02:45:01;25.70;51.10
12769;DHT22;6448;48.916;8.990;2022-08-19T02:46:10;25.60;51.10
12769;DHT22;6448;48.916;8.990;2022-08-19T02:47:12;25.60;51.10
12769;DHT22;6448;48.916;8.990;2022-08-19T02:48:15;25.50;51.00
12769;DHT22;6448;48.916;8.990;2022-08-19T02:49:18;25.50;51.00
12769;DHT22;6448;48.916;8.990;2022-08-19T02:50:20;25.60;51.10
12769;DHT22;6448;48.916;8.990;2022-08-19T02:51:23;25.60;51.10
12769;DHT22;6448;48.916;8.990;2022-08-19T02:52:24;25.70;51.20
12769;DHT22;6448;48.916;8.990;2022-08-19T02:53:28;25.60;51.20
12769;DHT22;6448;48.916;8.990;2022-08-19T02:54:29;25.60;51.20
12769;DHT22;6448;48.916;8.990;2022-08-19T02:55:31;25.50;51.10
12769;DHT22;6448;48.916;8.990;2022-08-19T02:56:35;25.70;51.20
12769;DHT22;6448;48.916;8.990;2022-08-19T02:57:37;25.60;51.20
12769;DHT22;6448;48.916;8.990;2022-08-19T02:58:38;25.70;51.30
12769;DHT22;6448;48.916;8.990;2022-08-19T02:59:39;25.60;51.20
12769;DHT22;6448;48.916;8.990;2022-08-19T03:00:44;25.60;51.20
12769;DHT22;6448;48.916;8.990;2022-08-19T03:01:46;25.60;51.90
12769;DHT22;6448;48.916;8.990;2022-08-19T03:02:47;25.60;51.20
12769;DHT22;6448;48.916;8.990;2022-08-19T03:03:49;25.60;51.20
12769;DHT22;6448;48.916;8.990;2022-08-19T03:04:50;25.60;51.20
12769;DHT22;6448;48.916;8.990;2022-08-19T03:06:03;25.50;51.10
12769;DHT22;6448;48.916;8.990;2022-08-19T03:07:04;25.60;51.30
12769;DHT22;6448;48.916;8.990;2022-08-19T03:08:07;25.40;51.10
12769;DHT22;6448;48.916;8.990;2022-08-19T03:09:09;25.70;51.40
12769;DHT22;6448;48.916;8.990;2022-08-19T03:10:11;25.70;51.40
12769;DHT22;6448;48.916;8.990;2022-08-19T03:11:16;25.60;51.20
12769;DHT22;6448;48.916;8.990;2022-08-19T03:12:19;25.60;51.20
12769;DHT22;6448;48.916;8.990;2022-08-19T03:13:20;25.60;51.20
12769;DHT22;6448;48.916;8.990;2022-08-19T03:14:21;25.60;51.20
12769;DHT22;6448;48.916;8.990;2022-08-19T03:15:23;25.60;51.20
12769;DHT22;6448;48.916;8.990;2022-08-19T03:16:27;25.60;51.20
12769;DHT22;6448;48.916;8.990;2022-08-19T03:17:28;25.60;51.30
12769;DHT22;6448;48.916;8.990;2022-08-19T03:18:29;25.60;51.20
12769;DHT22;6448;48.916;8.990;2022-08-19T03:19:31;25.60;51.20
12769;DHT22;6448;48.916;8.990;2022-08-19T03:20:32;25.60;51.20
12769;DHT22;6448;48.916;8.990;2022-08-19T03:21:34;25.60;51.20
12769;DHT22;6448;48.916;8.990;2022-08-19T03:22:36;25.60;51.20
12769;DHT22;6448;48.916;8.990;2022-08-19T03:23:37;25.60;51.20
12769;DHT22;6448;48.916;8.990;2022-08-19T03:24:39;25.60;51.20
12769;DHT22;6448;48.916;8.990;2022-08-19T03:25:42;25.50;51.20
12769;DHT22;6448;48.916;8.990;2022-08-19T03:26:46;25.60;51.30
12769;DHT22;6448;48.916;8.990;2022-08-19T03:27:49;25.50;51.20
12769;DHT22;6448;48.916;8.990;2022-08-19T03:28:51;25.50;51.20
12769;DHT22;6448;48.916;8.990;2022-08-19T03:29:52;25.50;51.20
12769;DHT22;6448;48.916;8.990;2022-08-19T03:30:58;25.80;51.40
12769;DHT22;6448;48.916;8.990;2022-08-19T03:32:01;25.40;51.20
12769;DHT22;6448;48.916;8.990;2022-08-19T03:33:04;25.50;51.30
12769;DHT22;6448;48.916;8.990;2022-08-19T03:34:05;25.50;51.30
12769;DHT22;6448;48.916;8.990;2022-08-19T03:35:07;25.50;51.30
12769;DHT22;6448;48.916;8.990;2022-08-19T03:36:10;25.50;51.30
12769;DHT22;6448;48.916;8.990;2022-08-19T03:37:13;25.60;51.50
12769;DHT22;6448;48.916;8.990;2022-08-19T03:38:14;25.50;51.40
12769;DHT22;6448;48.916;8.990;2022-08-19T03:39:16;25.50;51.40
12769;DHT22;6448;48.916;8.990;2022-08-19T03:40:17;25.50;51.50
12769;DHT22;6448;48.916;8.990;2022-08-19T03:41:23;25.50;51.40
12769;DHT22;6448;48.916;8.990;2022-08-19T03:42:24;25.50;51.50
12769;DHT22;6448;48.916;8.990;2022-08-19T03:43:28;25.50;51.50
12769;DHT22;6448;48.916;8.990;2022-08-19T03:44:30;25.50;52.10
12769;DHT22;6448;48.916;8.990;2022-08-19T03:45:32;25.50;51.60
12769;DHT22;6448;48.916;8.990;2022-08-19T03:46:34;25.50;51.50
12769;DHT22;6448;48.916;8.990;2022-08-19T03:47:36;25.50;51.50
12769;DHT22;6448;48.916;8.990;2022-08-19T03:48:39;25.50;51.50
12769;DHT22;6448;48.916;8.990;2022-08-19T03:49:41;25.50;51.60
12769;DHT22;6448;48.916;8.990;2022-08-19T03:50:42;25.40;51.50
12769;DHT22;6448;48.916;8.990;2022-08-19T03:51:43;25.50;51.50
12769;DHT22;6448;48.916;8.990;2022-08-19T03:52:48;25.50;51.60
12769;DHT22;6448;48.916;8.990;2022-08-19T03:53:49;25.40;51.50
12769;DHT22;6448;48.916;8.990;2022-08-19T03:54:51;25.50;51.50
12769;DHT22;6448;48.916;8.990;2022-08-19T03:55:52;25.50;51.50
12769;DHT22;6448;48.916;8.990;2022-08-19T03:56:55;25.50;51.60
12769;DHT22;6448;48.916;8.990;2022-08-19T03:57:57;25.50;51.60
12769;DHT22;6448;48.916;8.990;2022-08-19T03:59:00;25.50;51.50
12769;DHT22;6448;48.916;8.990;2022-08-19T04:00:03;25.50;51.50
12769;DHT22;6448;48.916;8.990;2022-08-19T04:01:08;25.50;51.50
12769;DHT22;6448;48.916;8.990;2022-08-19T04:02:11;25.60;51.60
12769;DHT22;6448;48.916;8.990;2022-08-19T04:03:12;25.50;51.50
12769;DHT22;6448;48.916;8.990;2022-08-19T04:04:13;25.50;51.50
12769;DHT22;6448;48.916;8.990;2022-08-19T04:05:15;25.50;51.50
12769;DHT22;6448;48.916;8.990;2022-08-19T04:06:18;25.50;51.50
12769;DHT22;6448;48.916;8.990;2022-08-19T04:07:21;25.50;51.60
12769;DHT22;6448;48.916;8.990;2022-08-19T04:08:22;25.50;51.50
12769;DHT22;6448;48.916;8.990;2022-08-19T04:09:24;25.50;51.50
12769;DHT22;6448;48.916;8.990;2022-08-19T04:10:25;25.40;51.40
12769;DHT22;6448;48.916;8.990;2022-08-19T04:11:29;25.50;51.50
12769;DHT22;6448;48.916;8.990;2022-08-19T04:12:30;25.70;51.70
12769;DHT22;6448;48.916;8.990;2022-08-19T04:13:32;25.50;51.40
12769;DHT22;6448;48.916;8.990;2022-08-19T04:14:35;25.60;51.60
12769;DHT22;6448;48.916;8.990;2022-08-19T04:15:40;25.50;51.40
12769;DHT22;6448;48.916;8.990;2022-08-19T04:16:42;25.50;51.50
12769;DHT22;6448;48.916;8.990;2022-08-19T04:17:45;25.40;51.50
12769;DHT22;6448;48.916;8.990;2022-08-19T04:18:46;25.40;51.50
12769;DHT22;6448;48.916;8.990;2022-08-19T04:19:51;25.50;51.60
12769;DHT22;6448;48.916;8.990;2022-08-19T04:20:52;25.40;51.60
12769;DHT22;6448;48.916;8.990;2022-08-19T04:21:54;25.40;51.60
12769;DHT22;6448;48.916;8.990;2022-08-19T04:22:56;25.40;51.70
12769;DHT22;6448;48.916;8.990;2022-08-19T04:23:58;25.40;51.70
12769;DHT22;6448;48.916;8.990;2022-08-19T04:24:59;25.50;51.80
12769;DHT22;6448;48.916;8.990;2022-08-19T04:26:01;25.40;51.80
12769;DHT22;6448;48.916;8.990;2022-08-19T04:27:03;25.40;51.80
12769;DHT22;6448;48.916;8.990;2022-08-19T04:28:07;25.30;51.70
12769;DHT22;6448;48.916;8.990;2022-08-19T04:29:12;25.30;51.80
12769;DHT22;6448;48.916;8.990;2022-08-19T04:30:15;25.30;52.00
12769;DHT22;6448;48.916;8.990;2022-08-19T04:31:19;25.30;51.80
12769;DHT22;6448;48.916;8.990;2022-08-19T04:32:21;25.30;52.00
12769;DHT22;6448;48.916;8.990;2022-08-19T04:33:24;25.30;52.00
12769;DHT22;6448;48.916;8.990;2022-08-19T04:34:28;25.30;52.00
12769;DHT22;6448;48.916;8.990;2022-08-19T04:35:34;25.20;51.90
12769;DHT22;6448;48.916;8.990;2022-08-19T04:36:38;25.30;52.10
12769;DHT22;6448;48.916;8.990;2022-08-19T04:37:40;25.30;52.10
12769;DHT22;6448;48.916;8.990;2022-08-19T04:38:41;25.30;52.10
12769;DHT22;6448;48.916;8.990;2022-08-19T04:39:42;25.30;52.10
12769;DHT22;6448;48.916;8.990;2022-08-19T04:41:03;25.40;52.10
12769;DHT22;6448;48.916;8.990;2022-08-19T04:42:22;25.30;52.10
12769;DHT22;6448;48.916;8.990;2022-08-19T04:43:44;25.30;52.10
12769;DHT22;6448;48.916;8.990;2022-08-19T04:44:48;25.30;52.10
12769;DHT22;6448;48.916;8.990;2022-08-19T04:45:52;25.30;52.10
12769;DHT22;6448;48.916;8.990;2022-08-19T04:46:53;25.30;52.10
12769;DHT22;6448;48.916;8.990;2022-08-19T04:47:56;25.30;52.20
12769;DHT22;6448;48.916;8.990;2022-08-19T04:48:57;25.20;52.10
12769;DHT22;6448;48.916;8.990;2022-08-19T04:49:59;25.20;52.10
12769;DHT22;6448;48.916;8.990;2022-08-19T04:51:00;25.30;52.20
12769;DHT22;6448;48.916;8.990;2022-08-19T04:52:03;25.20;52.20
12769;DHT22;6448;48.916;8.990;2022-08-19T04:53:04;25.20;52.20
12769;DHT22;6448;48.916;8.990;2022-08-19T04:54:05;25.20;52.30
12769;DHT22;6448;48.916;8.990;2022-08-19T04:55:07;25.40;52.40
12769;DHT22;6448;48.916;8.990;2022-08-19T04:56:11;25.20;52.30
12769;DHT22;6448;48.916;8.990;2022-08-19T04:57:12;25.20;52.30
12769;DHT22;6448;48.916;8.990;2022-08-19T04:58:14;25.10;52.30
12769;DHT22;6448;48.916;8.990;2022-08-19T04:59:17;25.10;52.40
12769;DHT22;6448;48.916;8.990;2022-08-19T05:00:20;25.00;52.40
12769;DHT22;6448;48.916;8.990;2022-08-19T05:01:25;25.10;52.50
12769;DHT22;6448;48.916;8.990;2022-08-19T05:02:28;25.10;52.50
12769;DHT22;6448;48.916;8.990;2022-08-19T05:03:30;25.10;52.60
12769;DHT22;6448;48.916;8.990;2022-08-19T05:04:34;25.10;52.60
12769;DHT22;6448;48.916;8.990;2022-08-19T05:05:39;25.10;52.70
12769;DHT22;6448;48.916;8.990;2022-08-19T05:06:40;25.10;52.80
12769;DHT22;6448;48.916;8.990;2022-08-19T05:07:41;25.10;52.80
12769;DHT22;6448;48.916;8.990;2022-08-19T05:08:44;25.10;52.80
12769;DHT22;6448;48.916;8.990;2022-08-19T05:09:45;25.10;52.90
12769;DHT22;6448;48.916;8.990;2022-08-19T05:10:48;25.10;53.00
12769;DHT22;6448;48.916;8.990;2022-08-19T05:11:49;25.10;53.00
12769;DHT22;6448;48.916;8.990;2022-08-19T05:12:53;25.20;53.10
12769;DHT22;6448;48.916;8.990;2022-08-19T05:13:55;25.10;53.10
12769;DHT22;6448;48.916;8.990;2022-08-19T05:14:57;25.10;53.20
12769;DHT22;6448;48.916;8.990;2022-08-19T05:15:59;25.10;53.20
12769;DHT22;6448;48.916;8.990;2022-08-19T05:17:02;25.20;53.20
12769;DHT22;6448;48.916;8.990;2022-08-19T05:18:03;25.10;53.20
12769;DHT22;6448;48.916;8.990;2022-08-19T05:19:22;25.30;53.30
12769;DHT22;6448;48.916;8.990;2022-08-19T05:20:41;25.10;53.20
12769;DHT22;6448;48.916;8.990;2022-08-19T05:22:01;25.10;53.20
12769;DHT22;6448;48.916;8.990;2022-08-19T05:23:20;25.10;53.20
12769;DHT22;6448;48.916;8.990;2022-08-19T05:24:22;25.10;53.20
12769;DHT22;6448;48.916;8.990;2022-08-19T05:25:24;25.10;53.20
12769;DHT22;6448;48.916;8.990;2022-08-19T05:26:26;25.10;53.20
12769;DHT22;6448;48.916;8.990;2022-08-19T05:27:27;25.10;53.20
12769;DHT22;6448;48.916;8.990;2022-08-19T05:28:28;25.10;53.20
12769;DHT22;6448;48.916;8.990;2022-08-19T05:29:29;25.10;53.20
12769;DHT22;6448;48.916;8.990;2022-08-19T05:30:32;25.10;53.20
12769;DHT22;6448;48.916;8.990;2022-08-19T05:31:35;25.10;53.20
12769;DHT22;6448;48.916;8.990;2022-08-19T05:32:39;25.10;53.20
12769;DHT22;6448;48.916;8.990;2022-08-19T05:33:40;25.10;53.20
12769;DHT22;6448;48.916;8.990;2022-08-19T05:34:42;25.10;53.20
12769;DHT22;6448;48.916;8.990;2022-08-19T05:35:43;25.00;53.20
12769;DHT22;6448;48.916;8.990;2022-08-19T05:36:45;25.10;53.20
12769;DHT22;6448;48.916;8.990;2022-08-19T05:37:46;25.00;53.20
12769;DHT22;6448;48.916;8.990;2022-08-19T05:38:47;24.90;53.20
12769;DHT22;6448;48.916;8.990;2022-08-19T05:39:49;25.30;53.40
12769;DHT22;6448;48.916;8.990;2022-08-19T05:40:51;25.00;53.20
12769;DHT22;6448;48.916;8.990;2022-08-19T05:41:54;25.10;53.30
12769;DHT22;6448;48.916;8.990;2022-08-19T05:42:57;25.10;53.30
12769;DHT22;6448;48.916;8.990;2022-08-19T05:44:00;25.10;53.40
12769;DHT22;6448;48.916;8.990;2022-08-19T05:45:03;25.10;53.30
12769;DHT22;6448;48.916;8.990;2022-08-19T05:46:06;25.10;53.40
12769;DHT22;6448;48.916;8.990;2022-08-19T05:47:10;25.10;53.40
12769;DHT22;6448;48.916;8.990;2022-08-19T05:48:12;25.10;53.40
12769;DHT22;6448;48.916;8.990;2022-08-19T05:49:15;25.00;53.30
12769;DHT22;6448;48.916;8.990;2022-08-19T05:50:16;25.10;53.30
12769;DHT22;6448;48.916;8.990;2022-08-19T05:51:18;25.10;53.40
12769;DHT22;6448;48.916;8.990;2022-08-19T05:52:19;25.10;53.40
12769;DHT22;6448;48.916;8.990;2022-08-19T05:53:21;25.10;53.40
12769;DHT22;6448;48.916;8.990;2022-08-19T05:54:22;25.10;53.40
12769;DHT22;6448;48.916;8.990;2022-08-19T05:55:24;25.10;53.50
12769;DHT22;6448;48.916;8.990;2022-08-19T05:56:26;25.10;53.50
12769;DHT22;6448;48.916;8.990;2022-08-19T05:57:27;25.10;53.50
12769;DHT22;6448;48.916;8.990;2022-08-19T05:58:29;25.30;53.60
12769;DHT22;6448;48.916;8.990;2022-08-19T05:59:29;25.10;53.50
12769;DHT22;6448;48.916;8.990;2022-08-19T06:00:31;25.10;53.50
12769;DHT22;6448;48.916;8.990;2022-08-19T06:01:32;25.10;53.50
12769;DHT22;6448;48.916;8.990;2022-08-19T06:02:34;25.00;53.50
12769;DHT22;6448;48.916;8.990;2022-08-19T06:03:37;25.10;53.50
12769;DHT22;6448;48.916;8.990;2022-08-19T06:04:40;25.00;53.50
12769;DHT22;6448;48.916;8.990;2022-08-19T06:05:43;24.90;53.50
12769;DHT22;6448;48.916;8.990;2022-08-19T06:06:44;25.10;53.50
12769;DHT22;6448;48.916;8.990;2022-08-19T06:07:45;25.00;53.50
12769;DHT22;6448;48.916;8.990;2022-08-19T06:08:47;25.10;53.60
12769;DHT22;6448;48.916;8.990;2022-08-19T06:09:50;25.10;53.60
12769;DHT22;6448;48.916;8.990;2022-08-19T06:10:51;25.00;53.50
12769;DHT22;6448;48.916;8.990;2022-08-19T06:11:55;25.00;53.50
12769;DHT22;6448;48.916;8.990;2022-08-19T06:12:59;24.90;53.50
12769;DHT22;6448;48.916;8.990;2022-08-19T06:14:03;25.00;53.50
12769;DHT22;6448;48.916;8.990;2022-08-19T06:15:09;25.00;53.50
12769;DHT22;6448;48.916;8.990;2022-08-19T06:16:10;25.00;53.50
12769;DHT22;6448;48.916;8.990;2022-08-19T06:17:12;25.00;53.50
12769;DHT22;6448;48.916;8.990;2022-08-19T06:18:14;25.10;53.50
12769;DHT22;6448;48.916;8.990;2022-08-19T06:19:19;25.00;53.60
12769;DHT22;6448;48.916;8.990;2022-08-19T06:20:21;25.00;53.60
12769;DHT22;6448;48.916;8.990;2022-08-19T06:21:23;25.10;53.60
12769;DHT22;6448;48.916;8.990;2022-08-19T06:22:26;25.00;53.60
12769;DHT22;6448;48.916;8.990;2022-08-19T06:23:27;24.80;53.50
12769;DHT22;6448;48.916;8.990;2022-08-19T06:24:30;25.00;53.50
12769;DHT22;6448;48.916;8.990;2022-08-19T06:25:32;24.70;53.40
12769;DHT22;6448;48.916;8.990;2022-08-19T06:26:33;25.00;53.50
12769;DHT22;6448;48.916;8.990;2022-08-19T06:27:36;25.00;53.50
12769;DHT22;6448;48.916;8.990;2022-08-19T06:28:38;25.20;53.60
12769;DHT22;6448;48.916;8.990;2022-08-19T06:29:43;24.90;53.50
12769;DHT22;6448;48.916;8.990;2022-08-19T06:30:45;25.00;53.50
12769;DHT22;6448;48.916;8.990;2022-08-19T06:31:48;25.00;53.50
12769;DHT22;6448;48.916;8.990;2022-08-19T06:32:50;25.00;53.50
12769;DHT22;6448;48.916;8.990;2022-08-19T06:33:51;25.00;53.40
12769;DHT22;6448;48.916;8.990;2022-08-19T06:34:54;25.00;53.40
12769;DHT22;6448;48.916;8.990;2022-08-19T06:35:56;25.10;53.50
12769;DHT22;6448;48.916;8.990;2022-08-19T06:36:58;25.00;53.40
12769;DHT22;6448;48.916;8.990;2022-08-19T06:38:01;25.00;53.40
12769;DHT22;6448;48.916;8.990;2022-08-19T06:39:06;25.00;53.40
12769;DHT22;6448;48.916;8.990;2022-08-19T06:40:09;25.00;53.50
12769;DHT22;6448;48.916;8.990;2022-08-19T06:41:11;25.00;53.40
12769;DHT22;6448;48.916;8.990;2022-08-19T06:42:12;25.00;53.40